createdAt,value
2016-09-14T00:00:29.244Z,0
2016-09-14T00:01:40.447Z,0
2016-09-14T00:02:51.457Z,0
2016-09-14T00:04:02.464Z,0
2016-09-14T00:05:13.475Z,0
2016-09-14T00:06:24.482Z,0
2016-09-14T00:07:35.488Z,0
2016-09-14T00:08:46.689Z,0
2016-09-14T00:09:57.693Z,0
2016-09-14T00:11:08.693Z,0
2016-09-14T00:12:19.698Z,0
2016-09-14T00:13:30.703Z,0
2016-09-14T00:14:41.705Z,0
2016-09-14T00:15:53.321Z,0
2016-09-14T00:17:04.321Z,0
2016-09-14T00:18:15.326Z,0
2016-09-14T00:19:26.739Z,0
2016-09-14T00:20:37.743Z,0
2016-09-14T00:21:48.950Z,0
2016-09-14T00:22:59.957Z,0
2016-09-14T00:24:10.955Z,0
2016-09-14T00:25:22.163Z,0
2016-09-14T00:26:33.170Z,0
2016-09-14T00:27:44.172Z,0
2016-09-14T00:28:55.188Z,0
2016-09-14T00:30:06.401Z,0
2016-09-14T00:31:17.417Z,0
2016-09-14T00:32:28.412Z,0
2016-09-14T00:33:39.608Z,0
2016-09-14T00:34:50.626Z,0
2016-09-14T00:36:01.639Z,0
2016-09-14T00:37:12.636Z,0
2016-09-14T00:38:23.836Z,0
2016-09-14T00:39:34.841Z,0
2016-09-14T00:40:45.839Z,0
2016-09-14T00:41:56.843Z,0
2016-09-14T00:43:07.853Z,0
2016-09-14T00:44:19.094Z,0
2016-09-14T00:45:30.109Z,0
2016-09-14T00:46:41.109Z,0
2016-09-14T00:47:52.109Z,0
2016-09-14T00:49:03.323Z,0
2016-09-14T00:50:14.328Z,0
2016-09-14T00:51:25.330Z,0
2016-09-14T00:52:36.382Z,0
2016-09-14T00:53:47.382Z,0
2016-09-14T00:54:58.394Z,0
2016-09-14T00:56:09.388Z,0
2016-09-14T00:57:20.592Z,0
2016-09-14T00:58:31.599Z,0
2016-09-14T00:59:42.614Z,0
2016-09-14T01:00:53.618Z,0
2016-09-14T01:02:04.621Z,0
2016-09-14T01:03:15.626Z,0
2016-09-14T01:04:26.640Z,0
2016-09-14T01:05:37.656Z,0
2016-09-14T01:06:48.668Z,0
2016-09-14T01:07:59.666Z,0
2016-09-14T01:09:10.873Z,0
2016-09-14T01:10:21.876Z,0
2016-09-14T01:11:32.884Z,0
2016-09-14T01:12:43.889Z,0
2016-09-14T01:13:54.893Z,0
2016-09-14T01:15:05.893Z,0
2016-09-14T01:16:16.900Z,0
2016-09-14T01:17:27.902Z,0
2016-09-14T01:18:39.108Z,0
2016-09-14T01:19:50.108Z,0
2016-09-14T01:21:01.112Z,0
2016-09-14T01:22:12.115Z,0
2016-09-14T01:23:23.123Z,0
2016-09-14T01:24:34.132Z,0
2016-09-14T01:25:45.137Z,0
2016-09-14T01:26:56.145Z,0
2016-09-14T01:28:07.344Z,0
2016-09-14T01:29:18.553Z,0
2016-09-14T01:30:29.552Z,0
2016-09-14T01:31:40.759Z,0
2016-09-14T01:32:51.771Z,0
2016-09-14T01:34:02.778Z,0
2016-09-14T01:35:13.791Z,0
2016-09-14T01:36:24.798Z,0
2016-09-14T01:37:36.015Z,0
2016-09-14T01:38:47.028Z,0
2016-09-14T01:39:58.055Z,0
2016-09-14T01:41:09.066Z,0
2016-09-14T01:42:20.071Z,0
2016-09-14T01:43:31.078Z,0
2016-09-14T01:44:42.085Z,0
2016-09-14T01:45:53.093Z,0
2016-09-14T01:47:04.110Z,0
2016-09-14T01:48:15.115Z,0
2016-09-14T01:49:26.114Z,0
2016-09-14T01:50:37.315Z,0
2016-09-14T01:51:48.313Z,0
2016-09-14T01:52:59.381Z,0
2016-09-14T01:54:10.387Z,0
2016-09-14T01:55:21.397Z,0
2016-09-14T01:56:32.403Z,0
2016-09-14T01:57:43.406Z,0
2016-09-14T01:58:54.432Z,0
2016-09-14T02:00:05.439Z,0
2016-09-14T02:01:16.456Z,0
2016-09-14T02:02:27.463Z,0
2016-09-14T02:03:38.461Z,0
2016-09-14T02:04:49.662Z,0
2016-09-14T02:06:00.869Z,0
2016-09-14T02:07:12.083Z,0
2016-09-14T02:08:23.091Z,0
2016-09-14T02:09:34.096Z,0
2016-09-14T02:10:45.154Z,0
2016-09-14T02:11:56.157Z,0
2016-09-14T02:13:07.155Z,0
2016-09-14T02:14:18.166Z,0
2016-09-14T02:15:29.167Z,0
2016-09-14T02:16:40.168Z,0
2016-09-14T02:17:51.162Z,0
2016-09-14T02:19:02.163Z,0
2016-09-14T02:20:13.171Z,0
2016-09-14T02:21:24.178Z,0
2016-09-14T02:22:35.188Z,0
2016-09-14T02:23:46.192Z,0
2016-09-14T02:24:57.192Z,0
2016-09-14T02:26:08.397Z,0
2016-09-14T02:27:19.399Z,0
2016-09-14T02:28:30.607Z,0
2016-09-14T02:29:41.603Z,0
2016-09-14T02:30:52.607Z,0
2016-09-14T02:32:03.617Z,0
2016-09-14T02:33:14.626Z,0
2016-09-14T02:34:25.634Z,0
2016-09-14T02:35:36.636Z,0
2016-09-14T02:36:47.646Z,0
2016-09-14T02:37:58.650Z,0
2016-09-14T02:39:09.647Z,0
2016-09-14T02:40:20.651Z,0
2016-09-14T02:41:31.865Z,0
2016-09-14T02:42:42.865Z,0
2016-09-14T02:43:53.863Z,0
2016-09-14T02:45:04.873Z,0
2016-09-14T02:46:15.870Z,0
2016-09-14T02:47:26.882Z,0
2016-09-14T02:48:38.094Z,0
2016-09-14T02:49:49.502Z,0
2016-09-14T02:51:00.702Z,0
2016-09-14T02:52:11.906Z,0
2016-09-14T02:53:22.958Z,0
2016-09-14T02:54:33.971Z,0
2016-09-14T02:55:45.175Z,0
2016-09-14T02:56:56.175Z,0
2016-09-14T02:58:07.583Z,0
2016-09-14T02:59:18.587Z,0
2016-09-14T03:00:29.600Z,0
2016-09-14T03:01:40.804Z,0
2016-09-14T03:02:51.802Z,0
2016-09-14T03:04:02.806Z,0
2016-09-14T03:05:13.807Z,0
2016-09-14T03:06:24.810Z,0
2016-09-14T03:07:36.006Z,0
2016-09-14T03:08:47.008Z,0
2016-09-14T03:09:58.013Z,0
2016-09-14T03:11:09.018Z,0
2016-09-14T03:12:20.019Z,0
2016-09-14T03:13:31.223Z,0
2016-09-14T03:14:42.228Z,0
2016-09-14T03:15:53.443Z,0
2016-09-14T03:17:04.447Z,0
2016-09-14T03:18:15.653Z,0
2016-09-14T03:19:26.649Z,0
2016-09-14T03:20:37.659Z,0
2016-09-14T03:21:48.668Z,0
2016-09-14T03:22:59.886Z,0
2016-09-14T03:24:11.116Z,0
2016-09-14T03:25:22.127Z,0
2016-09-14T03:26:33.129Z,0
2016-09-14T03:27:44.135Z,0
2016-09-14T03:28:55.142Z,0
2016-09-14T03:30:06.147Z,0
2016-09-14T03:31:17.361Z,0
2016-09-14T03:32:28.365Z,0
2016-09-14T03:33:39.372Z,0
2016-09-14T03:34:50.384Z,0
2016-09-14T03:36:01.387Z,0
2016-09-14T03:37:12.611Z,0
2016-09-14T03:38:23.616Z,0
2016-09-14T03:39:34.626Z,0
2016-09-14T03:40:45.632Z,0
2016-09-14T03:41:56.638Z,0
2016-09-14T03:43:07.638Z,0
2016-09-14T03:44:18.652Z,0
2016-09-14T03:45:29.652Z,0
2016-09-14T03:46:40.661Z,0
2016-09-14T03:47:51.662Z,0
2016-09-14T03:49:02.867Z,0
2016-09-14T03:50:13.870Z,0
2016-09-14T03:51:24.881Z,0
2016-09-14T03:52:35.889Z,0
2016-09-14T03:53:46.936Z,0
2016-09-14T03:54:57.939Z,0
2016-09-14T03:56:08.949Z,0
2016-09-14T03:57:19.953Z,0
2016-09-14T03:58:30.956Z,0
2016-09-14T03:59:41.965Z,0
2016-09-14T04:00:52.977Z,0
2016-09-14T04:02:04.178Z,0
2016-09-14T04:03:15.181Z,0
2016-09-14T04:04:26.589Z,0
2016-09-14T04:05:37.790Z,0
2016-09-14T04:06:48.788Z,0
2016-09-14T04:07:59.819Z,0
2016-09-14T04:09:10.841Z,0
2016-09-14T04:10:21.849Z,0
2016-09-14T04:11:32.849Z,0
2016-09-14T04:12:43.709Z,0
2016-09-14T04:13:54.714Z,0
2016-09-14T04:15:05.722Z,0
2016-09-14T04:16:16.738Z,0
2016-09-14T04:17:27.741Z,0
2016-09-14T04:18:38.751Z,0
2016-09-14T04:19:49.949Z,0
2016-09-14T04:21:01.154Z,0
2016-09-14T04:22:12.159Z,0
2016-09-14T04:23:23.162Z,0
2016-09-14T04:24:34.169Z,0
2016-09-14T04:25:45.371Z,0
2016-09-14T04:26:56.380Z,0
2016-09-14T04:28:07.378Z,4
2016-09-14T04:29:18.380Z,0
2016-09-14T04:30:29.403Z,0
2016-09-14T04:31:40.406Z,4
2016-09-14T04:32:51.411Z,4
2016-09-14T04:34:02.417Z,4
2016-09-14T04:35:13.628Z,4
2016-09-14T04:36:24.842Z,4
2016-09-14T04:37:35.849Z,8
2016-09-14T04:38:46.852Z,8
2016-09-14T04:39:57.853Z,12
2016-09-14T04:41:08.868Z,12
2016-09-14T04:42:19.884Z,20
2016-09-14T04:43:30.887Z,20
2016-09-14T04:44:41.880Z,28
2016-09-14T04:45:52.901Z,28
2016-09-14T04:47:03.901Z,40
2016-09-14T04:48:14.921Z,44
2016-09-14T04:49:25.923Z,52
2016-09-14T04:50:37.124Z,60
2016-09-14T04:51:48.124Z,68
2016-09-14T04:52:59.534Z,80
2016-09-14T04:54:10.587Z,92
2016-09-14T04:55:21.593Z,104
2016-09-14T04:56:32.606Z,120
2016-09-14T04:57:43.810Z,136
2016-09-14T04:58:54.814Z,152
2016-09-14T05:00:05.807Z,176
2016-09-14T05:01:16.805Z,192
2016-09-14T05:02:27.815Z,212
2016-09-14T05:03:38.827Z,236
2016-09-14T05:04:49.833Z,260
2016-09-14T05:06:00.840Z,288
2016-09-14T05:07:11.844Z,312
2016-09-14T05:08:22.839Z,344
2016-09-14T05:09:33.839Z,376
2016-09-14T05:10:44.839Z,408
2016-09-14T05:11:56.047Z,448
2016-09-14T05:13:07.049Z,484
2016-09-14T05:14:18.048Z,524
2016-09-14T05:15:29.045Z,568
2016-09-14T05:16:40.036Z,612
2016-09-14T05:17:51.039Z,656
2016-09-14T05:19:02.044Z,708
2016-09-14T05:20:13.047Z,756
2016-09-14T05:21:24.044Z,812
2016-09-14T05:22:35.056Z,864
2016-09-14T05:23:46.062Z,920
2016-09-14T05:24:57.071Z,984
2016-09-14T05:26:08.068Z,1044
2016-09-14T05:27:19.074Z,1112
2016-09-14T05:28:30.079Z,1176
2016-09-14T05:29:41.082Z,1244
2016-09-14T05:30:52.083Z,1316
2016-09-14T05:32:03.099Z,1384
2016-09-14T05:33:14.103Z,1456
2016-09-14T05:34:25.305Z,1524
2016-09-14T05:35:36.518Z,1644
2016-09-14T05:36:47.513Z,1712
2016-09-14T05:37:58.715Z,1740
2016-09-14T05:39:09.916Z,2028
2016-09-14T05:40:20.911Z,2060
2016-09-14T05:41:31.913Z,1952
2016-09-14T05:42:42.922Z,2028
2016-09-14T05:43:53.919Z,2104
2016-09-14T05:45:04.937Z,2176
2016-09-14T05:46:15.943Z,2252
2016-09-14T05:47:26.951Z,2332
2016-09-14T05:48:37.959Z,2408
2016-09-14T05:49:48.974Z,2488
2016-09-14T05:50:59.976Z,2564
2016-09-14T05:52:11.182Z,2644
2016-09-14T05:53:22.188Z,2724
2016-09-14T05:54:33.438Z,2800
2016-09-14T05:55:44.447Z,2880
2016-09-14T05:56:55.454Z,2960
2016-09-14T05:58:06.877Z,3036
2016-09-14T05:59:17.867Z,3120
2016-09-14T06:00:28.871Z,3212
2016-09-14T06:01:39.869Z,3284
2016-09-14T06:02:50.860Z,3368
2016-09-14T06:04:01.877Z,3456
2016-09-14T06:05:12.876Z,3716
2016-09-14T06:06:23.883Z,3732
2016-09-14T06:07:34.889Z,3684
2016-09-14T06:08:45.889Z,3760
2016-09-14T06:09:56.895Z,3836
2016-09-14T06:11:07.891Z,3912
2016-09-14T06:12:18.887Z,3984
2016-09-14T06:13:29.898Z,4056
2016-09-14T06:14:40.907Z,4128
2016-09-14T06:15:51.902Z,4200
2016-09-14T06:17:03.108Z,4268
2016-09-14T06:18:14.106Z,4344
2016-09-14T06:19:25.103Z,4420
2016-09-14T06:20:36.107Z,4496
2016-09-14T06:21:47.115Z,4584
2016-09-14T06:22:58.129Z,4668
2016-09-14T06:24:09.137Z,4756
2016-09-14T06:25:20.132Z,4844
2016-09-14T06:26:31.125Z,4936
2016-09-14T06:27:42.125Z,5028
2016-09-14T06:28:53.132Z,5124
2016-09-14T06:30:04.135Z,5224
2016-09-14T06:31:15.140Z,5332
2016-09-14T06:32:26.343Z,5452
2016-09-14T06:33:37.353Z,5568
2016-09-14T06:34:48.357Z,5684
2016-09-14T06:35:59.359Z,5808
2016-09-14T06:37:10.561Z,5940
2016-09-14T06:38:21.562Z,6084
2016-09-14T06:39:32.568Z,6244
2016-09-14T06:40:43.570Z,6484
2016-09-14T06:41:54.589Z,8696
2016-09-14T06:43:05.599Z,17216
2016-09-14T06:44:16.606Z,29664
2016-09-14T06:45:27.810Z,42336
2016-09-14T06:46:39.029Z,43488
2016-09-14T06:47:50.032Z,43808
2016-09-14T06:49:01.239Z,44096
2016-09-14T06:50:12.246Z,44480
2016-09-14T06:51:23.266Z,45280
2016-09-14T06:52:34.472Z,46080
2016-09-14T06:53:45.479Z,46752
2016-09-14T06:54:56.531Z,46624
2016-09-14T06:56:07.729Z,47296
2016-09-14T06:57:18.734Z,47520
2016-09-14T06:58:29.742Z,46912
2016-09-14T06:59:40.744Z,46112
2016-09-14T07:00:51.757Z,45824
2016-09-14T07:02:02.760Z,45824
2016-09-14T07:03:13.801Z,46880
2016-09-14T07:04:25.018Z,48896
2016-09-14T07:05:36.032Z,50528
2016-09-14T07:06:47.244Z,51712
2016-09-14T07:07:58.258Z,50368
2016-09-14T07:09:09.274Z,44288
2016-09-14T07:10:20.293Z,46656
2016-09-14T07:11:31.299Z,50048
2016-09-14T07:12:42.320Z,52928
2016-09-14T07:13:53.339Z,54144
2016-09-14T07:15:04.343Z,54720
2016-09-14T07:16:15.564Z,50112
2016-09-14T07:17:26.579Z,33344
2016-09-14T07:18:37.595Z,12876
2016-09-14T07:19:48.814Z,16320
2016-09-14T07:20:59.831Z,37888
2016-09-14T07:22:10.852Z,47296
2016-09-14T07:23:21.873Z,52352
2016-09-14T07:24:32.889Z,52096
2016-09-14T07:25:43.907Z,53536
2016-09-14T07:26:55.121Z,54176
2016-09-14T07:28:06.140Z,40160
2016-09-14T07:29:17.157Z,36992
2016-09-14T07:30:28.372Z,43616
2016-09-14T07:31:39.386Z,43488
2016-09-14T07:32:50.405Z,47264
2016-09-14T07:34:01.620Z,58336
2016-09-14T07:35:12.643Z,60512
2016-09-14T07:36:23.651Z,59840
2016-09-14T07:37:34.873Z,56096
2016-09-14T07:38:45.887Z,59936
2016-09-14T07:39:56.903Z,59392
2016-09-14T07:41:08.122Z,57696
2016-09-14T07:42:19.139Z,58560
2016-09-14T07:43:30.163Z,59808
2016-09-14T07:44:41.184Z,60608
2016-09-14T07:45:52.202Z,61152
2016-09-14T07:47:03.227Z,63168
2016-09-14T07:48:14.249Z,63936
2016-09-14T07:49:25.263Z,61184
2016-09-14T07:50:36.287Z,60160
2016-09-14T07:51:47.299Z,60832
2016-09-14T07:52:58.321Z,60288
2016-09-14T07:54:09.350Z,60960
2016-09-14T07:55:20.423Z,62656
2016-09-14T07:56:31.645Z,62112
2016-09-14T07:57:42.661Z,61440
2016-09-14T07:58:53.876Z,62848
2016-09-14T08:00:04.905Z,63168
2016-09-14T08:01:15.925Z,62368
2016-09-14T08:02:26.945Z,61440
2016-09-14T08:03:37.983Z,62080
2016-09-14T08:04:49.197Z,63712
2016-09-14T08:06:00.411Z,64128
2016-09-14T08:07:11.438Z,62560
2016-09-14T08:08:22.668Z,62592
2016-09-14T08:09:33.696Z,64800
2016-09-14T08:10:44.929Z,65568
2016-09-14T08:11:55.954Z,64736
2016-09-14T08:13:06.976Z,64928
2016-09-14T08:14:18.016Z,64032
2016-09-14T08:15:29.054Z,63552
2016-09-14T08:16:40.284Z,62496
2016-09-14T08:17:51.309Z,62496
2016-09-14T08:19:02.541Z,62624
2016-09-14T08:20:13.576Z,63264
2016-09-14T08:21:24.601Z,64320
2016-09-14T08:22:35.617Z,64960
2016-09-14T08:23:46.640Z,65216
2016-09-14T08:24:57.656Z,66304
2016-09-14T08:26:08.678Z,66528
2016-09-14T08:27:19.708Z,66816
2016-09-14T08:28:30.742Z,67072
2016-09-14T08:29:41.759Z,68416
2016-09-14T08:30:52.983Z,69056
2016-09-14T08:32:04.007Z,71040
2016-09-14T08:33:15.031Z,72032
2016-09-14T08:34:26.052Z,71392
2016-09-14T08:35:37.071Z,69920
2016-09-14T08:36:48.291Z,68704
2016-09-14T08:37:59.318Z,66944
2016-09-14T08:39:10.339Z,65472
2016-09-14T08:40:21.357Z,67328
2016-09-14T08:41:32.381Z,68448
2016-09-14T08:42:43.608Z,66560
2016-09-14T08:43:54.646Z,67424
2016-09-14T08:45:05.659Z,67968
2016-09-14T08:46:16.686Z,69248
2016-09-14T08:47:27.720Z,71360
2016-09-14T08:48:38.743Z,73056
2016-09-14T08:49:49.775Z,73632
2016-09-14T08:51:00.800Z,73024
2016-09-14T08:52:11.823Z,72928
2016-09-14T08:53:22.855Z,71872
2016-09-14T08:54:33.879Z,71168
2016-09-14T08:55:45.148Z,68928
2016-09-14T08:56:56.190Z,67712
2016-09-14T08:58:07.407Z,69120
2016-09-14T08:59:18.626Z,71040
2016-09-14T09:00:29.653Z,69280
2016-09-14T09:01:40.670Z,67296
2016-09-14T09:02:51.696Z,67264
2016-09-14T09:04:02.725Z,65920
2016-09-14T09:05:13.750Z,64256
2016-09-14T09:06:24.772Z,65504
2016-09-14T09:07:35.812Z,65888
2016-09-14T09:08:46.837Z,64064
2016-09-14T09:09:57.875Z,64352
2016-09-14T09:11:08.903Z,64544
2016-09-14T09:12:20.126Z,67584
2016-09-14T09:13:31.147Z,69792
2016-09-14T09:14:42.182Z,67776
2016-09-14T09:15:53.214Z,66624
2016-09-14T09:17:04.236Z,67072
2016-09-14T09:18:15.275Z,66784
2016-09-14T09:19:26.300Z,68224
2016-09-14T09:20:37.530Z,67072
2016-09-14T09:21:48.567Z,64480
2016-09-14T09:22:59.595Z,64320
2016-09-14T09:24:10.828Z,63104
2016-09-14T09:25:21.857Z,63200
2016-09-14T09:26:33.090Z,62848
2016-09-14T09:27:44.114Z,63360
2016-09-14T09:28:55.150Z,67168
2016-09-14T09:30:06.189Z,69600
2016-09-14T09:31:17.217Z,70208
2016-09-14T09:32:28.242Z,71392
2016-09-14T09:33:39.268Z,68064
2016-09-14T09:34:50.503Z,65600
2016-09-14T09:36:01.535Z,70496
2016-09-14T09:37:12.563Z,72768
2016-09-14T09:38:24.240Z,71424
2016-09-14T09:39:35.264Z,71488
2016-09-14T09:40:46.293Z,70112
2016-09-14T09:41:57.328Z,69728
2016-09-14T09:43:08.358Z,69024
2016-09-14T09:44:19.387Z,69248
2016-09-14T09:45:30.413Z,71488
2016-09-14T09:46:41.460Z,68608
2016-09-14T09:47:52.486Z,64736
2016-09-14T09:49:03.507Z,64768
2016-09-14T09:50:14.545Z,67552
2016-09-14T09:51:25.570Z,67360
2016-09-14T09:52:36.598Z,66432
2016-09-14T09:53:47.626Z,70592
2016-09-14T09:54:58.661Z,72384
2016-09-14T09:56:09.739Z,66144
2016-09-14T09:57:20.758Z,66528
2016-09-14T09:58:31.791Z,69248
2016-09-14T09:59:42.813Z,66592
2016-09-14T10:00:53.842Z,66976
2016-09-14T10:02:04.870Z,67232
2016-09-14T10:03:15.895Z,66592
2016-09-14T10:04:27.121Z,65920
2016-09-14T10:05:38.151Z,60416
2016-09-14T10:06:49.387Z,61664
2016-09-14T10:08:00.423Z,61824
2016-09-14T10:09:11.449Z,61888
2016-09-14T10:10:22.475Z,62240
2016-09-14T10:11:33.698Z,63968
2016-09-14T10:12:44.715Z,62560
2016-09-14T10:13:55.743Z,62784
2016-09-14T10:15:06.967Z,61216
2016-09-14T10:16:17.988Z,62208
2016-09-14T10:17:29.029Z,64576
2016-09-14T10:18:40.061Z,64032
2016-09-14T10:19:51.084Z,57408
2016-09-14T10:21:02.184Z,54464
2016-09-14T10:22:13.215Z,55808
2016-09-14T10:23:24.233Z,57088
2016-09-14T10:24:35.258Z,56608
2016-09-14T10:25:46.292Z,53984
2016-09-14T10:26:57.327Z,52864
2016-09-14T10:28:08.349Z,54272
2016-09-14T10:29:19.375Z,56000
2016-09-14T10:30:30.409Z,55296
2016-09-14T10:31:41.441Z,54304
2016-09-14T10:32:52.471Z,53888
2016-09-14T10:34:03.499Z,55456
2016-09-14T10:35:14.528Z,56096
2016-09-14T10:36:25.556Z,52384
2016-09-14T10:37:36.589Z,50112
2016-09-14T10:38:47.616Z,50368
2016-09-14T10:39:58.647Z,50784
2016-09-14T10:41:09.877Z,50912
2016-09-14T10:42:20.905Z,51648
2016-09-14T10:43:32.128Z,47424
2016-09-14T10:44:43.150Z,45184
2016-09-14T10:45:54.372Z,43840
2016-09-14T10:47:05.421Z,43360
2016-09-14T10:48:16.450Z,43840
2016-09-14T10:49:27.472Z,45568
2016-09-14T10:50:38.504Z,43680
2016-09-14T10:51:49.535Z,42112
2016-09-14T10:53:00.558Z,43072
2016-09-14T10:54:11.587Z,42048
2016-09-14T10:55:22.611Z,40864
2016-09-14T10:56:33.695Z,39424
2016-09-14T10:57:44.719Z,40320
2016-09-14T10:58:55.751Z,37376
2016-09-14T11:00:06.819Z,36864
2016-09-14T11:01:17.844Z,38048
2016-09-14T11:02:29.079Z,37824
2016-09-14T11:03:40.111Z,36608
2016-09-14T11:04:51.133Z,36096
2016-09-14T11:06:02.158Z,36512
2016-09-14T11:07:13.182Z,35200
2016-09-14T11:08:24.207Z,33376
2016-09-14T11:09:35.640Z,33824
2016-09-14T11:10:46.665Z,35360
2016-09-14T11:11:57.699Z,35616
2016-09-14T11:13:08.717Z,35360
2016-09-14T11:14:19.738Z,34720
2016-09-14T11:15:30.762Z,34080
2016-09-14T11:16:41.782Z,33440
2016-09-14T11:17:52.804Z,30464
2016-09-14T11:19:04.033Z,32576
2016-09-14T11:20:15.254Z,31488
2016-09-14T11:21:26.482Z,33184
2016-09-14T11:22:37.507Z,34176
2016-09-14T11:23:48.541Z,34880
2016-09-14T11:24:59.565Z,35936
2016-09-14T11:26:10.992Z,33440
2016-09-14T11:27:22.011Z,31648
2016-09-14T11:28:33.033Z,26464
2016-09-14T11:29:44.054Z,26560
2016-09-14T11:30:55.086Z,25216
2016-09-14T11:32:06.110Z,14400
2016-09-14T11:33:17.145Z,18080
2016-09-14T11:34:28.167Z,18560
2016-09-14T11:35:39.387Z,17664
2016-09-14T11:36:50.407Z,17888
2016-09-14T11:38:01.434Z,17024
2016-09-14T11:39:12.472Z,19072
2016-09-14T11:40:23.498Z,17376
2016-09-14T11:41:34.523Z,21696
2016-09-14T11:42:45.545Z,20896
2016-09-14T11:43:56.569Z,19872
2016-09-14T11:45:07.595Z,23520
2016-09-14T11:46:18.619Z,24544
2016-09-14T11:47:29.646Z,28512
2016-09-14T11:48:40.676Z,27040
2016-09-14T11:49:51.702Z,28032
2016-09-14T11:51:02.733Z,28384
2016-09-14T11:52:13.765Z,27296
2016-09-14T11:53:24.991Z,25632
2016-09-14T11:54:36.029Z,26336
2016-09-14T11:55:47.051Z,26176
2016-09-14T11:56:58.124Z,26112
2016-09-14T11:58:09.146Z,27008
2016-09-14T11:59:20.179Z,25696
2016-09-14T12:00:31.208Z,24992
2016-09-14T12:01:42.227Z,24608
2016-09-14T12:02:53.259Z,24576
2016-09-14T12:04:04.296Z,24000
2016-09-14T12:05:15.526Z,23456
2016-09-14T12:06:26.550Z,22560
2016-09-14T12:07:37.575Z,23392
2016-09-14T12:08:48.599Z,23456
2016-09-14T12:09:59.625Z,23008
2016-09-14T12:11:10.647Z,21728
2016-09-14T12:12:21.663Z,20640
2016-09-14T12:13:32.684Z,19968
2016-09-14T12:14:43.708Z,19936
2016-09-14T12:15:54.737Z,19296
2016-09-14T12:17:05.761Z,18336
2016-09-14T12:18:16.793Z,17664
2016-09-14T12:19:27.819Z,17184
2016-09-14T12:20:38.841Z,17120
2016-09-14T12:21:50.082Z,17376
2016-09-14T12:23:01.103Z,11396
2016-09-14T12:24:12.121Z,13524
2016-09-14T12:25:23.141Z,9624
2016-09-14T12:26:34.168Z,12828
2016-09-14T12:27:45.196Z,11608
2016-09-14T12:28:56.217Z,10352
2016-09-14T12:30:07.233Z,10336
2016-09-14T12:31:18.255Z,9336
2016-09-14T12:32:29.274Z,8988
2016-09-14T12:33:40.697Z,7936
2016-09-14T12:34:51.721Z,8036
2016-09-14T12:36:02.781Z,8016
2016-09-14T12:37:13.997Z,7440
2016-09-14T12:38:25.018Z,8356
2016-09-14T12:39:36.047Z,8948
2016-09-14T12:40:47.071Z,9436
2016-09-14T12:41:58.097Z,9356
2016-09-14T12:43:09.315Z,7636
2016-09-14T12:44:20.333Z,8392
2016-09-14T12:45:31.352Z,7056
2016-09-14T12:46:42.372Z,6876
2016-09-14T12:47:53.396Z,6820
2016-09-14T12:49:04.417Z,6872
2016-09-14T12:50:15.440Z,6916
2016-09-14T12:51:26.464Z,6836
2016-09-14T12:52:37.476Z,6852
2016-09-14T12:53:48.497Z,6804
2016-09-14T12:54:59.518Z,6804
2016-09-14T12:56:10.738Z,6796
2016-09-14T12:57:21.802Z,7044
2016-09-14T12:58:32.819Z,6764
2016-09-14T12:59:43.847Z,6696
2016-09-14T13:00:55.066Z,6660
2016-09-14T13:02:06.089Z,6620
2016-09-14T13:03:17.118Z,6604
2016-09-14T13:04:28.138Z,6544
2016-09-14T13:05:39.155Z,6572
2016-09-14T13:06:50.173Z,6664
2016-09-14T13:08:01.187Z,6584
2016-09-14T13:09:12.217Z,6492
2016-09-14T13:10:23.231Z,6472
2016-09-14T13:11:34.249Z,6604
2016-09-14T13:12:45.265Z,6536
2016-09-14T13:13:56.489Z,6320
2016-09-14T13:15:07.711Z,6520
2016-09-14T13:16:18.933Z,6624
2016-09-14T13:17:30.145Z,6484
2016-09-14T13:18:41.164Z,6412
2016-09-14T13:19:52.181Z,6528
2016-09-14T13:21:03.397Z,6508
2016-09-14T13:22:14.825Z,6632
2016-09-14T13:23:25.847Z,6772
2016-09-14T13:24:36.860Z,6588
2016-09-14T13:25:47.875Z,6460
2016-09-14T13:26:58.896Z,6420
2016-09-14T13:28:10.119Z,6472
2016-09-14T13:29:21.129Z,6588
2016-09-14T13:30:32.146Z,6372
2016-09-14T13:31:43.364Z,6388
2016-09-14T13:32:54.402Z,6436
2016-09-14T13:34:05.419Z,6372
2016-09-14T13:35:16.446Z,6344
2016-09-14T13:36:27.458Z,6296
2016-09-14T13:37:38.674Z,6292
2016-09-14T13:38:49.899Z,6424
2016-09-14T13:40:00.931Z,6344
2016-09-14T13:41:11.946Z,6456
2016-09-14T13:42:22.970Z,6608
2016-09-14T13:43:33.991Z,6604
2016-09-14T13:44:45.202Z,6460
2016-09-14T13:45:56.221Z,6364
2016-09-14T13:47:07.229Z,6400
2016-09-14T13:48:18.248Z,6376
2016-09-14T13:49:29.262Z,6280
2016-09-14T13:50:40.273Z,6408
2016-09-14T13:51:51.289Z,6640
2016-09-14T13:53:02.311Z,6496
2016-09-14T13:54:13.319Z,6640
2016-09-14T13:55:24.343Z,6656
2016-09-14T13:56:35.357Z,6620
2016-09-14T13:57:46.616Z,6768
2016-09-14T13:58:57.650Z,6920
2016-09-14T14:00:08.667Z,6772
2016-09-14T14:01:19.890Z,6704
2016-09-14T14:02:30.908Z,6652
2016-09-14T14:03:41.922Z,6572
2016-09-14T14:04:52.937Z,6628
2016-09-14T14:06:03.964Z,6436
2016-09-14T14:07:14.978Z,6304
2016-09-14T14:08:25.996Z,6284
2016-09-14T14:09:37.009Z,6880
2016-09-14T14:10:48.038Z,7624
2016-09-14T14:11:59.452Z,8296
2016-09-14T14:13:10.463Z,8276
2016-09-14T14:14:21.685Z,6856
2016-09-14T14:15:32.696Z,6028
2016-09-14T14:16:43.708Z,6068
2016-09-14T14:17:54.921Z,5824
2016-09-14T14:19:05.935Z,5248
2016-09-14T14:20:16.959Z,5004
2016-09-14T14:21:27.966Z,4832
2016-09-14T14:22:38.973Z,4708
2016-09-14T14:23:49.992Z,4668
2016-09-14T14:25:01.017Z,4616
2016-09-14T14:26:12.035Z,4588
2016-09-14T14:27:23.049Z,4536
2016-09-14T14:28:34.073Z,4484
2016-09-14T14:29:45.282Z,4456
2016-09-14T14:30:56.293Z,4420
2016-09-14T14:32:07.321Z,4380
2016-09-14T14:33:18.343Z,4320
2016-09-14T14:34:29.554Z,4284
2016-09-14T14:35:40.579Z,4300
2016-09-14T14:36:51.599Z,4264
2016-09-14T14:38:02.622Z,4184
2016-09-14T14:39:13.633Z,4076
2016-09-14T14:40:24.652Z,4048
2016-09-14T14:41:35.675Z,3972
2016-09-14T14:42:46.691Z,3920
2016-09-14T14:43:57.707Z,3888
2016-09-14T14:45:08.722Z,3824
2016-09-14T14:46:19.735Z,3760
2016-09-14T14:47:30.952Z,3724
2016-09-14T14:48:41.971Z,3700
2016-09-14T14:49:52.985Z,3700
2016-09-14T14:51:04.002Z,3620
2016-09-14T14:52:15.411Z,3568
2016-09-14T14:53:26.434Z,3548
2016-09-14T14:54:37.475Z,3496
2016-09-14T14:55:48.520Z,3464
2016-09-14T14:56:59.540Z,3440
2016-09-14T14:58:10.592Z,3420
2016-09-14T14:59:21.602Z,3404
2016-09-14T15:00:32.629Z,3380
2016-09-14T15:01:43.643Z,3364
2016-09-14T15:02:54.662Z,3320
2016-09-14T15:04:05.690Z,3320
2016-09-14T15:05:16.705Z,3308
2016-09-14T15:06:27.712Z,3252
2016-09-14T15:07:38.932Z,3220
2016-09-14T15:08:49.938Z,3204
2016-09-14T15:10:00.948Z,3172
2016-09-14T15:11:11.965Z,3144
2016-09-14T15:12:22.983Z,3112
2016-09-14T15:13:34.008Z,3088
2016-09-14T15:14:45.036Z,3084
2016-09-14T15:15:56.053Z,3044
2016-09-14T15:17:07.064Z,3024
2016-09-14T15:18:18.066Z,3000
2016-09-14T15:19:29.086Z,2976
2016-09-14T15:20:40.098Z,2948
2016-09-14T15:21:51.105Z,2936
2016-09-14T15:23:02.119Z,2916
2016-09-14T15:24:13.126Z,2904
2016-09-14T15:25:24.144Z,2880
2016-09-14T15:26:35.159Z,2860
2016-09-14T15:27:46.378Z,2832
2016-09-14T15:28:57.393Z,2816
2016-09-14T15:30:08.412Z,2788
2016-09-14T15:31:19.428Z,2772
2016-09-14T15:32:30.440Z,2756
2016-09-14T15:33:41.461Z,2732
2016-09-14T15:34:52.474Z,2712
2016-09-14T15:36:03.490Z,2688
2016-09-14T15:37:14.699Z,2672
2016-09-14T15:38:25.717Z,2644
2016-09-14T15:39:36.734Z,2624
2016-09-14T15:40:47.766Z,2604
2016-09-14T15:41:58.774Z,2584
2016-09-14T15:43:09.798Z,2556
2016-09-14T15:44:20.804Z,2540
2016-09-14T15:45:31.813Z,2520
2016-09-14T15:46:42.824Z,2508
2016-09-14T15:47:53.831Z,2488
2016-09-14T15:49:05.041Z,2472
2016-09-14T15:50:16.255Z,2452
2016-09-14T15:51:27.263Z,2432
2016-09-14T15:52:38.281Z,2416
2016-09-14T15:53:49.495Z,2396
2016-09-14T15:55:00.501Z,2368
2016-09-14T15:56:11.520Z,2344
2016-09-14T15:57:22.530Z,2324
2016-09-14T15:58:33.600Z,2304
2016-09-14T15:59:44.613Z,2284
2016-09-14T16:00:55.639Z,2272
2016-09-14T16:02:06.662Z,2252
2016-09-14T16:03:17.675Z,2236
2016-09-14T16:04:28.698Z,2224